createdAt,value
2022-11-18T00:00:22.338Z,47.56
2022-11-18T00:02:48.884Z,47.50
2022-11-18T00:05:16.620Z,47.87
2022-11-18T00:07:42.906Z,47.69
2022-11-18T00:10:09.361Z,47.51
2022-11-18T00:12:35.702Z,47.23
2022-11-18T00:15:02.070Z,47.66
2022-11-18T00:17:28.410Z,47.42
2022-11-18T00:19:54.735Z,47.07
2022-11-18T00:22:26.908Z,47.22
2022-11-18T00:24:56.012Z,47.05
2022-11-18T00:27:22.458Z,47.18
2022-11-18T00:29:49.071Z,47.20
2022-11-18T00:32:15.408Z,47.11
2022-11-18T00:34:41.763Z,47.24
2022-11-18T00:37:08.129Z,47.30
2022-11-18T00:39:35.723Z,47.27
2022-11-18T00:42:02.008Z,47.23
2022-11-18T00:44:28.411Z,47.19
2022-11-18T00:46:54.745Z,47.38
2022-11-18T00:49:21.074Z,47.36
2022-11-18T00:51:47.427Z,47.48
2022-11-18T00:54:13.752Z,47.56
2022-11-18T00:56:41.373Z,47.80
2022-11-18T00:59:07.969Z,47.28
2022-11-18T01:01:34.495Z,47.33
2022-11-18T01:04:00.883Z,47.62
2022-11-18T01:06:27.173Z,47.35
2022-11-18T01:08:53.544Z,47.24
2022-11-18T01:11:19.909Z,47.12
2022-11-18T01:13:50.297Z,47.22
2022-11-18T01:16:18.019Z,47.22
2022-11-18T01:18:44.449Z,47.26
2022-11-18T01:21:10.816Z,47.29
2022-11-18T01:23:37.143Z,47.29
2022-11-18T01:26:04.219Z,47.24
2022-11-18T01:28:30.737Z,47.29
2022-11-18T01:31:03.321Z,47.33
2022-11-18T01:33:29.624Z,47.44
2022-11-18T01:35:55.952Z,47.48
2022-11-18T01:38:22.364Z,47.30
2022-11-18T01:40:48.736Z,47.36
2022-11-18T01:43:16.007Z,47.47
2022-11-18T01:45:43.157Z,47.49
2022-11-18T01:48:13.567Z,47.80
2022-11-18T01:50:44.506Z,47.14
2022-11-18T01:53:13.408Z,47.14
2022-11-18T01:55:43.555Z,47.39
2022-11-18T01:58:12.320Z,47.26
2022-11-18T02:00:39.295Z,47.09
2022-11-18T02:03:05.989Z,47.01
2022-11-18T02:05:33.782Z,47.08
2022-11-18T02:08:00.920Z,47.09
2022-11-18T02:10:27.270Z,47.14
2022-11-18T02:12:54.511Z,47.07
2022-11-18T02:15:25.519Z,47.12
2022-11-18T02:17:57.195Z,47.17
2022-11-18T02:20:28.132Z,47.21
2022-11-18T02:23:11.862Z,47.19
2022-11-18T02:25:44.038Z,47.20
2022-11-18T02:28:22.827Z,47.36
2022-11-18T02:30:53.902Z,47.30
2022-11-18T02:33:24.043Z,47.25
2022-11-18T02:35:53.807Z,47.31
2022-11-18T02:38:24.594Z,47.46
2022-11-18T02:40:55.110Z,47.10
2022-11-18T02:43:24.509Z,47.09
2022-11-18T02:45:55.984Z,47.29
2022-11-18T02:48:24.666Z,47.07
2022-11-18T02:50:52.041Z,47.17
2022-11-18T02:53:19.660Z,47.07
2022-11-18T02:55:46.920Z,47.05
2022-11-18T02:58:15.265Z,47.11
2022-11-18T03:00:41.596Z,47.14
2022-11-18T03:03:17.769Z,47.16
2022-11-18T03:05:52.914Z,47.08
2022-11-18T03:08:23.017Z,47.08
2022-11-18T03:10:52.726Z,47.11
2022-11-18T03:13:24.792Z,47.11
2022-11-18T03:15:56.140Z,47.26
2022-11-18T03:18:26.455Z,47.36
2022-11-18T03:20:58.542Z,47.13
2022-11-18T03:23:28.320Z,47.28
2022-11-18T03:25:57.478Z,47.32
2022-11-18T03:28:26.307Z,47.06
2022-11-18T03:30:56.453Z,47.08
2022-11-18T03:33:24.909Z,47.10
2022-11-18T03:35:54.152Z,47.09
2022-11-18T03:38:25.100Z,46.87
2022-11-18T03:40:59.885Z,46.49
2022-11-18T03:43:29.034Z,46.60
2022-11-18T03:45:57.778Z,46.55
2022-11-18T03:48:26.345Z,46.30
2022-11-18T03:50:55.359Z,46.40
2022-11-18T03:53:25.418Z,46.26
2022-11-18T03:55:54.137Z,46.20
2022-11-18T03:58:23.364Z,46.39
2022-11-18T04:00:52.533Z,46.29
2022-11-18T04:03:19.106Z,46.32
2022-11-18T04:05:47.069Z,46.31
2022-11-18T04:08:16.273Z,46.18
2022-11-18T04:10:47.033Z,46.21
2022-11-18T04:13:17.931Z,46.41
2022-11-18T04:15:44.277Z,46.44
2022-11-18T04:18:11.011Z,46.28
2022-11-18T04:20:37.711Z,46.19
2022-11-18T04:23:04.228Z,46.38
2022-11-18T04:25:30.612Z,46.39
2022-11-18T04:27:58.278Z,45.81
2022-11-18T04:30:24.632Z,45.87
2022-11-18T04:32:50.932Z,46.15
2022-11-18T04:35:17.283Z,46.11
2022-11-18T04:37:43.585Z,46.24
2022-11-18T04:40:10.818Z,46.14
2022-11-18T04:42:37.165Z,46.06
2022-11-18T04:45:05.253Z,45.80
2022-11-18T04:47:31.611Z,45.71
2022-11-18T04:49:57.935Z,45.89
2022-11-18T04:52:24.293Z,45.59
2022-11-18T04:54:50.631Z,45.60
2022-11-18T04:57:17.081Z,45.61
2022-11-18T04:59:43.414Z,45.47
2022-11-18T05:02:11.038Z,45.57
2022-11-18T05:04:37.393Z,45.66
2022-11-18T05:07:04.699Z,45.63
2022-11-18T05:09:32.274Z,45.58
2022-11-18T05:11:59.327Z,45.55
2022-11-18T05:14:25.709Z,45.49
2022-11-18T05:16:52.160Z,45.57
2022-11-18T05:19:20.294Z,45.52
2022-11-18T05:21:46.826Z,45.95
2022-11-18T05:24:13.624Z,45.78
2022-11-18T05:26:39.963Z,45.56
2022-11-18T05:29:06.263Z,45.33
2022-11-18T05:31:32.931Z,45.36
2022-11-18T05:33:59.302Z,45.49
2022-11-18T05:36:26.973Z,45.44
2022-11-18T05:38:53.351Z,45.58
2022-11-18T05:41:19.746Z,45.66
2022-11-18T05:43:46.369Z,45.49
2022-11-18T05:46:12.705Z,45.13
2022-11-18T05:48:39.032Z,45.06
2022-11-18T05:51:05.490Z,45.05
2022-11-18T05:53:33.076Z,45.18
2022-11-18T05:56:03.387Z,45.12
2022-11-18T05:58:29.734Z,45.18
2022-11-18T06:01:00.629Z,45.29
2022-11-18T06:03:30.968Z,45.28
2022-11-18T06:05:59.773Z,45.09
2022-11-18T06:08:28.883Z,45.25
2022-11-18T06:10:56.795Z,45.78
2022-11-18T06:13:25.426Z,45.64
2022-11-18T06:15:52.616Z,45.75
2022-11-18T06:18:22.019Z,45.62
2022-11-18T06:20:48.447Z,45.51
2022-11-18T06:23:14.941Z,45.83
2022-11-18T06:25:41.594Z,46.02
2022-11-18T06:28:10.404Z,45.43
2022-11-18T06:30:36.764Z,45.07
2022-11-18T06:33:03.129Z,44.95
2022-11-18T06:35:29.511Z,44.82
2022-11-18T06:37:55.872Z,44.73
2022-11-18T06:40:22.157Z,44.86
2022-11-18T06:42:48.571Z,44.74
2022-11-18T06:45:17.136Z,44.71
2022-11-18T06:47:43.899Z,44.70
2022-11-18T06:50:10.358Z,44.78
2022-11-18T06:52:36.748Z,44.87
2022-11-18T06:55:03.256Z,45.02
2022-11-18T06:57:29.708Z,44.99
2022-11-18T07:00:01.622Z,45.40
2022-11-18T07:02:29.814Z,45.21
2022-11-18T07:04:56.134Z,44.66
2022-11-18T07:07:22.592Z,44.84
2022-11-18T07:09:48.960Z,45.03
2022-11-18T07:12:15.274Z,44.83
2022-11-18T07:14:41.613Z,45.20
2022-11-18T07:17:08.079Z,44.92
2022-11-18T07:19:36.234Z,44.87
2022-11-18T07:22:02.606Z,44.72
2022-11-18T07:24:28.971Z,44.73
2022-11-18T07:26:55.375Z,44.76
2022-11-18T07:29:21.706Z,44.39
2022-11-18T07:31:48.012Z,44.56
2022-11-18T07:34:14.447Z,44.58
2022-11-18T07:36:42.208Z,44.54
2022-11-18T07:39:08.788Z,44.82
2022-11-18T07:41:35.605Z,44.92
2022-11-18T07:44:03.144Z,45.13
2022-11-18T07:46:30.281Z,45.04
2022-11-18T07:48:57.493Z,45.02
2022-11-18T07:51:24.862Z,44.96
2022-11-18T07:53:52.487Z,44.69
2022-11-18T07:56:19.295Z,44.75
2022-11-18T07:58:45.762Z,44.68
2022-11-18T08:01:12.842Z,44.92
2022-11-18T08:03:39.474Z,44.87
2022-11-18T08:06:06.895Z,45.03
2022-11-18T08:08:33.249Z,45.21
2022-11-18T08:11:01.808Z,45.28
2022-11-18T08:13:28.469Z,44.95
2022-11-18T08:15:55.383Z,44.87
2022-11-18T08:18:22.150Z,45.04
2022-11-18T08:20:48.579Z,44.88
2022-11-18T08:23:16.054Z,45.20
2022-11-18T08:25:43.204Z,45.08
2022-11-18T08:28:11.126Z,45.19
2022-11-18T08:30:37.825Z,45.49
2022-11-18T08:33:04.557Z,45.07
2022-11-18T08:35:31.828Z,45.05
2022-11-18T08:37:58.531Z,45.11
2022-11-18T08:40:25.327Z,45.00
2022-11-18T08:42:51.709Z,45.02
2022-11-18T08:45:19.442Z,45.07
2022-11-18T08:47:45.819Z,45.01
2022-11-18T08:50:12.418Z,44.94
2022-11-18T08:52:38.835Z,45.07
2022-11-18T08:55:06.091Z,45.14
2022-11-18T08:57:32.395Z,44.88
2022-11-18T08:59:58.745Z,44.99
2022-11-18T09:02:26.336Z,45.29
2022-11-18T09:04:53.267Z,44.70
2022-11-18T09:07:20.472Z,44.40
2022-11-18T09:09:47.263Z,44.82
2022-11-18T09:12:13.674Z,44.91
2022-11-18T09:17:29.027Z,44.95
2022-11-18T09:19:55.409Z,45.86
2022-11-18T09:22:21.750Z,46.62
2022-11-18T09:24:48.161Z,46.40
2022-11-18T09:27:17.253Z,46.65
2022-11-18T09:29:44.113Z,46.92
2022-11-18T09:32:10.517Z,47.81
2022-11-18T09:34:38.187Z,48.00
2022-11-18T09:37:04.614Z,48.28
2022-11-18T09:39:30.957Z,48.71
2022-11-18T09:42:04.487Z,48.52
2022-11-18T09:44:40.438Z,48.38
2022-11-18T09:47:12.895Z,48.50
2022-11-18T09:49:42.108Z,48.48
2022-11-18T09:52:13.606Z,48.75
2022-11-18T09:54:40.015Z,48.51
2022-11-18T09:57:11.781Z,48.62
2022-11-18T09:59:38.457Z,48.14
2022-11-18T10:02:19.852Z,48.22
2022-11-18T10:04:47.554Z,47.78
2022-11-18T10:07:17.927Z,47.64
2022-11-18T10:09:45.277Z,47.64
2022-11-18T10:12:14.900Z,47.35
2022-11-18T10:14:48.472Z,47.32
2022-11-18T10:17:21.548Z,49.12
2022-11-18T10:19:52.526Z,48.59
2022-11-18T10:22:24.611Z,48.41
2022-11-18T10:24:52.609Z,48.71
2022-11-18T10:27:19.185Z,48.69
2022-11-18T10:29:48.493Z,50.31
2022-11-18T10:32:15.531Z,49.80
2022-11-18T10:34:47.334Z,49.98
2022-11-18T10:37:34.480Z,49.47
2022-11-18T10:40:23.029Z,49.51
2022-11-18T10:42:49.429Z,50.04
2022-11-18T10:45:16.703Z,50.57
2022-11-18T10:47:43.111Z,48.81
2022-11-18T10:50:24.283Z,48.04
2022-11-18T10:52:52.909Z,47.97
2022-11-18T10:55:21.055Z,47.71
2022-11-18T10:57:48.575Z,47.74
2022-11-18T11:00:24.892Z,47.60
2022-11-18T11:02:51.276Z,47.45
2022-11-18T11:05:19.747Z,47.18
2022-11-18T11:07:46.294Z,46.84
2022-11-18T11:10:21.556Z,46.64
2022-11-18T11:12:51.597Z,46.60
2022-11-18T11:15:19.206Z,46.45
2022-11-18T11:17:48.340Z,46.33
2022-11-18T11:20:17.938Z,46.24
2022-11-18T11:22:44.442Z,46.29
2022-11-18T11:25:12.821Z,46.34
2022-11-18T11:30:35.828Z,46.90
2022-11-18T11:33:12.401Z,46.65
2022-11-18T11:35:42.539Z,46.82
2022-11-18T11:38:15.961Z,46.38
2022-11-18T11:40:45.075Z,46.96
2022-11-18T11:43:22.059Z,46.53
2022-11-18T11:45:56.837Z,45.93
2022-11-18T11:48:30.183Z,46.02
2022-11-18T11:51:04.283Z,46.09
2022-11-18T11:53:44.829Z,46.00
2022-11-18T11:56:19.721Z,46.18
2022-11-18T11:58:59.139Z,46.12
2022-11-18T12:01:29.814Z,46.35
2022-11-18T12:04:01.618Z,46.47
2022-11-18T12:06:28.089Z,46.44
2022-11-18T12:09:01.666Z,46.49
2022-11-18T12:11:30.818Z,46.47
2022-11-18T12:14:02.666Z,46.45
2022-11-18T12:16:33.589Z,46.22
2022-11-18T12:19:01.395Z,46.17
2022-11-18T12:21:37.623Z,46.15
2022-11-18T12:24:18.786Z,46.15
2022-11-18T12:26:46.364Z,46.04
2022-11-18T12:29:23.129Z,46.09
2022-11-18T12:31:50.614Z,46.02
2022-11-18T12:34:20.456Z,46.08
2022-11-18T12:36:46.773Z,46.01
2022-11-18T12:39:23.052Z,46.00
2022-11-18T12:41:53.218Z,46.04
2022-11-18T12:44:24.002Z,45.95
2022-11-18T12:46:51.639Z,46.06
2022-11-18T12:49:27.827Z,45.97
2022-11-18T12:51:54.898Z,46.08
2022-11-18T12:54:24.229Z,46.37
2022-11-18T12:56:50.609Z,46.20
2022-11-18T12:59:17.291Z,45.55
2022-11-18T13:01:45.591Z,45.72
2022-11-18T13:04:13.851Z,45.68
2022-11-18T13:06:40.530Z,45.84
2022-11-18T13:09:14.564Z,45.85
2022-11-18T13:11:43.801Z,45.92
2022-11-18T13:14:14.370Z,45.91
2022-11-18T13:16:41.507Z,45.94
2022-11-18T13:19:09.466Z,46.07
2022-11-18T13:21:36.096Z,46.31
2022-11-18T13:24:02.517Z,46.88
2022-11-18T13:26:29.976Z,46.59
2022-11-18T13:29:02.849Z,47.18
2022-11-18T13:31:32.653Z,47.20
2022-11-18T13:34:00.746Z,46.87
2022-11-18T13:39:43.840Z,46.02
2022-11-18T13:42:17.165Z,45.94
2022-11-18T13:44:45.447Z,46.01
2022-11-18T13:47:15.850Z,45.59
2022-11-18T13:49:50.392Z,46.08
2022-11-18T13:52:18.987Z,45.65
2022-11-18T13:54:45.901Z,46.05
2022-11-18T13:57:22.669Z,45.95
2022-11-18T13:59:49.942Z,46.03
2022-11-18T14:02:16.745Z,46.19
2022-11-18T14:04:49.539Z,46.25
2022-11-18T14:07:22.662Z,46.16
2022-11-18T14:09:53.570Z,46.85
2022-11-18T14:12:25.345Z,46.42
2022-11-18T14:14:51.691Z,46.32
2022-11-18T14:17:19.215Z,46.79
2022-11-18T14:19:46.383Z,46.25
2022-11-18T14:22:15.140Z,46.39
2022-11-18T14:24:41.645Z,46.58
2022-11-18T14:27:17.862Z,46.49
2022-11-18T14:29:50.421Z,46.42
2022-11-18T14:32:16.758Z,46.76
2022-11-18T14:34:43.086Z,46.37
2022-11-18T14:37:10.916Z,46.53
2022-11-18T14:39:37.911Z,46.65
2022-11-18T14:42:04.715Z,46.80
2022-11-18T14:44:31.151Z,46.66
2022-11-18T14:46:59.724Z,46.81
2022-11-18T14:49:26.960Z,46.91
2022-11-18T14:51:53.921Z,46.97
2022-11-18T14:54:26.360Z,46.92
2022-11-18T14:56:54.587Z,47.12
2022-11-18T14:59:21.142Z,47.16
2022-11-18T15:01:47.692Z,47.04
2022-11-18T15:04:15.743Z,47.08
2022-11-18T15:06:42.176Z,47.02
2022-11-18T15:09:08.578Z,47.07
2022-11-18T15:11:34.986Z,47.16
2022-11-18T15:14:01.622Z,47.54
2022-11-18T15:16:29.288Z,47.46
2022-11-18T15:19:00.057Z,47.30
2022-11-18T15:21:28.529Z,47.19
2022-11-18T15:23:54.958Z,47.50
2022-11-18T15:26:22.317Z,47.35
2022-11-18T15:28:49.333Z,47.32
2022-11-18T15:31:16.239Z,47.11
2022-11-18T15:33:42.581Z,47.27
2022-11-18T15:36:11.808Z,47.07
2022-11-18T15:38:39.439Z,47.07
2022-11-18T15:41:05.935Z,46.86
2022-11-18T15:43:32.301Z,46.80
2022-11-18T15:45:59.018Z,46.84
2022-11-18T15:48:25.397Z,46.56
2022-11-18T15:50:54.234Z,46.68
2022-11-18T15:53:20.790Z,46.75
2022-11-18T15:55:48.456Z,46.73
2022-11-18T15:58:17.345Z,46.61
2022-11-18T16:00:45.193Z,46.79
2022-11-18T16:03:11.727Z,46.74
2022-11-18T16:05:38.038Z,46.44
2022-11-18T16:08:04.449Z,46.42
2022-11-18T16:10:30.735Z,46.55
2022-11-18T16:12:58.369Z,46.31
2022-11-18T16:15:24.702Z,46.27
2022-11-18T16:17:51.299Z,46.04
2022-11-18T16:20:17.692Z,46.15
2022-11-18T16:22:44.032Z,46.24
2022-11-18T16:25:11.143Z,46.36
2022-11-18T16:27:37.436Z,46.26
2022-11-18T16:30:05.304Z,46.19
2022-11-18T16:32:31.603Z,46.17
2022-11-18T16:35:01.239Z,46.36
2022-11-18T16:37:27.903Z,46.32
2022-11-18T16:39:54.210Z,46.33
2022-11-18T16:42:20.493Z,46.47
2022-11-18T16:44:46.903Z,46.37
2022-11-18T16:47:15.453Z,46.52
2022-11-18T16:49:42.296Z,46.51
2022-11-18T16:52:08.609Z,46.45
2022-11-18T16:54:38.272Z,46.52
2022-11-18T16:57:08.464Z,46.58
2022-11-18T16:59:34.740Z,46.59
2022-11-18T17:02:01.202Z,46.61
2022-11-18T17:04:29.622Z,46.57
2022-11-18T17:06:56.038Z,46.61
2022-11-18T17:09:23.389Z,46.38
2022-11-18T17:11:49.948Z,46.17
2022-11-18T17:14:16.321Z,46.44
2022-11-18T17:16:43.035Z,46.40
2022-11-18T17:19:12.799Z,46.53
2022-11-18T17:21:41.067Z,46.50
2022-11-18T17:24:07.810Z,46.53
2022-11-18T17:26:34.182Z,46.71
2022-11-18T17:29:00.562Z,46.62
2022-11-18T17:31:26.876Z,46.60
2022-11-18T17:33:54.215Z,46.68
2022-11-18T17:36:22.137Z,46.66
2022-11-18T17:38:51.048Z,46.58
2022-11-18T17:41:18.474Z,46.67
2022-11-18T17:43:44.744Z,46.61
2022-11-18T17:46:11.045Z,46.81
2022-11-18T17:48:37.397Z,46.68
2022-11-18T17:51:04.251Z,46.74
2022-11-18T17:53:30.903Z,46.53
2022-11-18T17:56:03.709Z,46.68
2022-11-18T17:58:30.521Z,46.70
2022-11-18T18:00:56.915Z,46.79
2022-11-18T18:03:23.292Z,46.62
2022-11-18T18:05:49.647Z,46.71
2022-11-18T18:08:16.126Z,46.57
2022-11-18T18:10:42.482Z,46.64
2022-11-18T18:13:10.081Z,46.64
2022-11-18T18:15:37.019Z,46.52
2022-11-18T18:18:03.470Z,46.66
2022-11-18T18:20:29.808Z,46.46
2022-11-18T18:22:56.170Z,46.47
2022-11-18T18:25:22.829Z,46.54
2022-11-18T18:27:49.176Z,46.38
2022-11-18T18:30:17.369Z,46.52
2022-11-18T18:32:48.123Z,46.34
2022-11-18T18:35:17.417Z,46.47
2022-11-18T18:37:43.734Z,46.32
2022-11-18T18:40:10.409Z,46.31
2022-11-18T18:42:36.740Z,46.38
2022-11-18T18:45:03.287Z,46.45
2022-11-18T18:47:33.460Z,46.40
2022-11-18T18:49:59.806Z,46.38
2022-11-18T18:52:26.165Z,46.39
2022-11-18T18:54:52.495Z,46.47
2022-11-18T18:57:19.034Z,46.47
2022-11-18T18:59:45.343Z,46.48
2022-11-18T19:02:11.943Z,46.49
2022-11-18T19:04:39.552Z,46.48
2022-11-18T19:07:05.993Z,46.43
2022-11-18T19:09:35.211Z,46.38
2022-11-18T19:12:04.231Z,46.38
2022-11-18T19:14:32.321Z,46.44
2022-11-18T19:16:58.617Z,46.44
2022-11-18T19:19:25.993Z,46.47
2022-11-18T19:21:53.592Z,46.52
2022-11-18T19:24:47.756Z,46.46
2022-11-18T19:27:06.606Z,46.43
2022-11-18T19:29:33.253Z,46.52
2022-11-18T19:31:59.553Z,46.43
2022-11-18T19:34:25.938Z,46.45
2022-11-18T19:36:53.536Z,46.43
2022-11-18T19:39:20.171Z,46.42
2022-11-18T19:41:46.649Z,46.59
2022-11-18T19:44:13.050Z,46.47
2022-11-18T19:46:39.379Z,46.84
2022-11-18T19:49:05.674Z,46.51
2022-11-18T19:51:31.976Z,46.43
2022-11-18T19:53:59.885Z,46.43
2022-11-18T19:56:26.247Z,46.46
2022-11-18T19:58:52.524Z,46.40
2022-11-18T20:01:20.277Z,46.41
2022-11-18T20:03:47.125Z,46.64
2022-11-18T20:06:14.319Z,46.40
2022-11-18T20:08:40.634Z,46.45
2022-11-18T20:11:09.592Z,46.23
2022-11-18T20:13:36.380Z,46.15
2022-11-18T20:16:03.818Z,46.13
2022-11-18T20:18:30.142Z,46.24
2022-11-18T20:20:56.473Z,46.41
2022-11-18T20:23:22.798Z,46.29
2022-11-18T20:25:49.098Z,46.28
2022-11-18T20:28:16.769Z,46.29
2022-11-18T20:30:45.156Z,46.39
2022-11-18T20:33:11.593Z,46.23
2022-11-18T20:35:37.965Z,46.40
2022-11-18T20:38:04.254Z,46.29
2022-11-18T20:40:30.567Z,46.32
2022-11-18T20:42:57.010Z,46.57
2022-11-18T20:45:24.616Z,46.35
2022-11-18T20:47:50.990Z,46.50
2022-11-18T20:50:17.430Z,46.37
2022-11-18T20:52:43.764Z,46.35
2022-11-18T20:55:10.147Z,46.44
2022-11-18T20:57:36.450Z,46.46
2022-11-18T21:00:02.905Z,46.43
2022-11-18T21:02:30.973Z,46.41
2022-11-18T21:04:57.411Z,46.46
2022-11-18T21:07:23.845Z,46.49
2022-11-18T21:09:50.185Z,46.33
2022-11-18T21:12:16.512Z,46.41
2022-11-18T21:14:42.980Z,46.41
2022-11-18T21:17:09.321Z,46.14
2022-11-18T21:19:36.975Z,46.41
2022-11-18T21:22:03.307Z,46.31
2022-11-18T21:24:30.520Z,46.41
2022-11-18T21:26:57.320Z,46.34
2022-11-18T21:29:25.410Z,46.36
2022-11-18T21:31:52.146Z,46.34
2022-11-18T21:34:18.884Z,46.31
2022-11-18T21:36:52.972Z,46.22
2022-11-18T21:39:21.373Z,46.18
2022-11-18T21:41:53.678Z,46.26
2022-11-18T21:44:21.846Z,46.30
2022-11-18T21:46:48.335Z,46.23
2022-11-18T21:49:14.681Z,46.21
2022-11-18T21:51:40.994Z,46.24
2022-11-18T21:54:08.632Z,46.18
2022-11-18T21:56:34.982Z,46.16
2022-11-18T21:59:01.936Z,46.17
2022-11-18T22:01:28.906Z,46.16
2022-11-18T22:03:56.069Z,46.12
2022-11-18T22:06:23.014Z,46.17
2022-11-18T22:08:50.074Z,46.18
2022-11-18T22:11:17.755Z,46.15
2022-11-18T22:13:44.102Z,46.13
2022-11-18T22:16:11.579Z,46.06
2022-11-18T22:18:38.931Z,46.06
2022-11-18T22:21:06.324Z,45.96
2022-11-18T22:23:33.080Z,46.09
2022-11-18T22:25:59.926Z,45.99
2022-11-18T22:28:27.539Z,45.97
2022-11-18T22:30:53.882Z,46.04
2022-11-18T22:33:20.240Z,45.88
2022-11-18T22:35:46.591Z,46.00
2022-11-18T22:38:12.882Z,45.95
2022-11-18T22:40:39.361Z,45.95
2022-11-18T22:43:05.768Z,45.98
2022-11-18T22:45:33.411Z,45.83
2022-11-18T22:47:59.691Z,45.89
2022-11-18T22:50:26.211Z,45.84
2022-11-18T22:52:52.555Z,45.83
2022-11-18T22:55:19.027Z,45.83
2022-11-18T22:57:45.364Z,45.71
2022-11-18T23:00:12.179Z,45.66
2022-11-18T23:02:39.775Z,45.60
2022-11-18T23:05:06.321Z,45.79
2022-11-18T23:07:32.750Z,45.77
2022-11-18T23:09:59.165Z,45.95
2022-11-18T23:12:25.642Z,45.57
2022-11-18T23:14:52.014Z,45.48
2022-11-18T23:17:18.355Z,45.63
2022-11-18T23:19:45.910Z,45.53
2022-11-18T23:22:12.721Z,45.41
2022-11-18T23:24:39.378Z,45.44
2022-11-18T23:27:05.827Z,45.47
2022-11-18T23:29:32.081Z,45.59
2022-11-18T23:31:58.376Z,45.44
2022-11-18T23:34:24.702Z,45.56
2022-11-18T23:36:52.319Z,45.39
2022-11-18T23:39:19.144Z,45.45
2022-11-18T23:41:45.778Z,45.43
2022-11-18T23:44:12.239Z,45.36
2022-11-18T23:46:38.563Z,45.29
2022-11-18T23:49:07.561Z,45.27
2022-11-18T23:51:33.939Z,45.26
2022-11-18T23:54:01.718Z,45.30
2022-11-18T23:56:28.017Z,45.31
2022-11-18T23:58:55.537Z,45.27
